sensor_id;sensor_type;location;lat;lon;timestamp;temperature;humidity
62581;DHT22;48640;48.770;9.148;2022-09-03T00:00:53;18.00;61.60
62581;DHT22;48640;48.770;9.148;2022-09-03T00:03:23;18.00;61.40
62581;DHT22;48640;48.770;9.148;2022-09-03T00:06:06;18.20;61.90
62581;DHT22;48640;48.770;9.148;2022-09-03T00:08:38;18.20;61.20
62581;DHT22;48640;48.770;9.148;2022-09-03T00:11:11;18.30;61.10
62581;DHT22;48640;48.770;9.148;2022-09-03T00:13:44;18.40;60.80
62581;DHT22;48640;48.770;9.148;2022-09-03T00:16:16;18.40;60.70
62581;DHT22;48640;48.770;9.148;2022-09-03T00:18:50;18.50;60.00
62581;DHT22;48640;48.770;9.148;2022-09-03T00:21:28;18.50;60.10
62581;DHT22;48640;48.770;9.148;2022-09-03T00:23:58;18.50;59.50
62581;DHT22;48640;48.770;9.148;2022-09-03T00:26:29;18.60;59.40
62581;DHT22;48640;48.770;9.148;2022-09-03T00:29:02;18.60;61.70
62581;DHT22;48640;48.770;9.148;2022-09-03T00:31:34;18.50;62.50
62581;DHT22;48640;48.770;9.148;2022-09-03T00:34:05;18.40;64.40
62581;DHT22;48640;48.770;9.148;2022-09-03T00:36:36;18.40;64.80
62581;DHT22;48640;48.770;9.148;2022-09-03T00:39:09;18.40;65.10
62581;DHT22;48640;48.770;9.148;2022-09-03T00:41:39;18.50;63.90
62581;DHT22;48640;48.770;9.148;2022-09-03T00:44:28;18.50;64.10
62581;DHT22;48640;48.770;9.148;2022-09-03T00:47:08;18.40;65.00
62581;DHT22;48640;48.770;9.148;2022-09-03T00:49:45;18.50;65.60
62581;DHT22;48640;48.770;9.148;2022-09-03T00:52:24;18.50;65.40
62581;DHT22;48640;48.770;9.148;2022-09-03T00:54:58;18.50;65.20
62581;DHT22;48640;48.770;9.148;2022-09-03T00:57:38;18.50;64.90
62581;DHT22;48640;48.770;9.148;2022-09-03T01:00:12;18.60;64.60
62581;DHT22;48640;48.770;9.148;2022-09-03T01:02:50;18.60;63.60
62581;DHT22;48640;48.770;9.148;2022-09-03T01:05:36;18.60;63.30
62581;DHT22;48640;48.770;9.148;2022-09-03T01:08:18;18.50;64.10
62581;DHT22;48640;48.770;9.148;2022-09-03T01:10:53;18.50;64.90
62581;DHT22;48640;48.770;9.148;2022-09-03T01:13:26;18.40;65.00
62581;DHT22;48640;48.770;9.148;2022-09-03T01:16:04;18.50;64.60
62581;DHT22;48640;48.770;9.148;2022-09-03T01:18:45;18.50;64.40
62581;DHT22;48640;48.770;9.148;2022-09-03T01:21:33;18.50;64.40
62581;DHT22;48640;48.770;9.148;2022-09-03T01:24:20;18.50;64.60
62581;DHT22;48640;48.770;9.148;2022-09-03T01:27:08;18.60;63.00
62581;DHT22;48640;48.770;9.148;2022-09-03T01:29:48;18.60;62.40
62581;DHT22;48640;48.770;9.148;2022-09-03T01:32:23;18.60;63.20
62581;DHT22;48640;48.770;9.148;2022-09-03T01:35:05;18.60;63.00
62581;DHT22;48640;48.770;9.148;2022-09-03T01:37:40;18.60;61.20
62581;DHT22;48640;48.770;9.148;2022-09-03T01:40:17;18.70;61.00
62581;DHT22;48640;48.770;9.148;2022-09-03T01:42:56;18.70;60.50
62581;DHT22;48640;48.770;9.148;2022-09-03T01:45:39;18.70;60.30
62581;DHT22;48640;48.770;9.148;2022-09-03T01:48:31;18.70;59.90
62581;DHT22;48640;48.770;9.148;2022-09-03T01:51:08;18.60;59.20
62581;DHT22;48640;48.770;9.148;2022-09-03T01:56:49;18.60;59.70
62581;DHT22;48640;48.770;9.148;2022-09-03T01:59:25;18.60;59.40
62581;DHT22;48640;48.770;9.148;2022-09-03T02:02:02;18.60;59.70
62581;DHT22;48640;48.770;9.148;2022-09-03T02:04:31;18.60;59.40
62581;DHT22;48640;48.770;9.148;2022-09-03T02:07:00;18.60;59.50
62581;DHT22;48640;48.770;9.148;2022-09-03T02:09:27;18.50;59.50
62581;DHT22;48640;48.770;9.148;2022-09-03T02:11:57;18.40;59.50
62581;DHT22;48640;48.770;9.148;2022-09-03T02:14:26;18.40;59.60
62581;DHT22;48640;48.770;9.148;2022-09-03T02:16:57;18.40;59.70
62581;DHT22;48640;48.770;9.148;2022-09-03T02:19:26;18.40;59.80
62581;DHT22;48640;48.770;9.148;2022-09-03T02:21:55;18.40;60.60
62581;DHT22;48640;48.770;9.148;2022-09-03T02:24:22;18.40;60.70
62581;DHT22;48640;48.770;9.148;2022-09-03T02:26:49;18.40;60.50
62581;DHT22;48640;48.770;9.148;2022-09-03T02:29:16;18.30;59.30
62581;DHT22;48640;48.770;9.148;2022-09-03T02:31:43;18.30;59.20
62581;DHT22;48640;48.770;9.148;2022-09-03T02:34:11;18.40;60.30
62581;DHT22;48640;48.770;9.148;2022-09-03T02:36:41;18.40;60.60
62581;DHT22;48640;48.770;9.148;2022-09-03T02:39:10;18.40;60.30
62581;DHT22;48640;48.770;9.148;2022-09-03T02:41:37;18.30;59.40
62581;DHT22;48640;48.770;9.148;2022-09-03T02:44:08;18.20;60.90
62581;DHT22;48640;48.770;9.148;2022-09-03T02:46:38;18.10;60.30
62581;DHT22;48640;48.770;9.148;2022-09-03T02:49:06;18.10;61.40
62581;DHT22;48640;48.770;9.148;2022-09-03T02:51:35;17.90;61.90
62581;DHT22;48640;48.770;9.148;2022-09-03T02:54:02;17.80;62.60
62581;DHT22;48640;48.770;9.148;2022-09-03T02:56:29;17.70;62.70
62581;DHT22;48640;48.770;9.148;2022-09-03T02:58:56;17.70;63.50
62581;DHT22;48640;48.770;9.148;2022-09-03T03:01:23;17.70;63.90
62581;DHT22;48640;48.770;9.148;2022-09-03T03:03:51;17.70;66.10
62581;DHT22;48640;48.770;9.148;2022-09-03T03:06:18;17.50;65.40
62581;DHT22;48640;48.770;9.148;2022-09-03T03:08:47;17.50;66.00
62581;DHT22;48640;48.770;9.148;2022-09-03T03:11:15;17.50;66.10
62581;DHT22;48640;48.770;9.148;2022-09-03T03:13:43;17.50;66.70
62581;DHT22;48640;48.770;9.148;2022-09-03T03:16:11;17.60;66.80
62581;DHT22;48640;48.770;9.148;2022-09-03T03:18:39;17.60;66.30
62581;DHT22;48640;48.770;9.148;2022-09-03T03:21:07;17.60;66.60
62581;DHT22;48640;48.770;9.148;2022-09-03T03:23:35;17.50;66.60
62581;DHT22;48640;48.770;9.148;2022-09-03T03:26:05;17.40;67.50
62581;DHT22;48640;48.770;9.148;2022-09-03T03:28:32;17.40;68.20
62581;DHT22;48640;48.770;9.148;2022-09-03T03:31:04;17.30;68.20
62581;DHT22;48640;48.770;9.148;2022-09-03T03:33:31;17.30;68.70
62581;DHT22;48640;48.770;9.148;2022-09-03T03:35:58;17.20;68.30
62581;DHT22;48640;48.770;9.148;2022-09-03T03:38:28;17.20;68.80
62581;DHT22;48640;48.770;9.148;2022-09-03T03:40:55;17.20;69.10
62581;DHT22;48640;48.770;9.148;2022-09-03T03:43:23;17.10;69.50
62581;DHT22;48640;48.770;9.148;2022-09-03T03:45:55;17.10;69.60
62581;DHT22;48640;48.770;9.148;2022-09-03T03:48:22;17.10;69.60
62581;DHT22;48640;48.770;9.148;2022-09-03T03:50:49;17.10;69.60
62581;DHT22;48640;48.770;9.148;2022-09-03T03:53:16;17.20;70.20
62581;DHT22;48640;48.770;9.148;2022-09-03T03:55:43;17.30;70.00
62581;DHT22;48640;48.770;9.148;2022-09-03T03:58:09;17.40;69.50
62581;DHT22;48640;48.770;9.148;2022-09-03T04:00:38;17.50;69.20
62581;DHT22;48640;48.770;9.148;2022-09-03T04:03:04;17.40;70.00
62581;DHT22;48640;48.770;9.148;2022-09-03T04:05:31;17.60;69.70
62581;DHT22;48640;48.770;9.148;2022-09-03T04:08:00;17.50;69.50
62581;DHT22;48640;48.770;9.148;2022-09-03T04:10:27;17.50;69.20
62581;DHT22;48640;48.770;9.148;2022-09-03T04:12:54;17.40;70.30
62581;DHT22;48640;48.770;9.148;2022-09-03T04:15:21;17.40;70.30
62581;DHT22;48640;48.770;9.148;2022-09-03T04:17:49;17.50;70.50
62581;DHT22;48640;48.770;9.148;2022-09-03T04:20:17;17.60;70.80
62581;DHT22;48640;48.770;9.148;2022-09-03T04:22:43;17.60;70.00
62581;DHT22;48640;48.770;9.148;2022-09-03T04:25:10;17.50;70.20
62581;DHT22;48640;48.770;9.148;2022-09-03T04:27:37;17.40;70.60
62581;DHT22;48640;48.770;9.148;2022-09-03T04:30:05;17.40;71.00
62581;DHT22;48640;48.770;9.148;2022-09-03T04:32:32;17.40;70.60
62581;DHT22;48640;48.770;9.148;2022-09-03T04:35:26;17.30;70.30
62581;DHT22;48640;48.770;9.148;2022-09-03T04:37:54;17.30;70.70
62581;DHT22;48640;48.770;9.148;2022-09-03T04:40:21;17.30;71.30
62581;DHT22;48640;48.770;9.148;2022-09-03T04:42:48;17.30;71.20
62581;DHT22;48640;48.770;9.148;2022-09-03T04:45:15;17.30;71.50
62581;DHT22;48640;48.770;9.148;2022-09-03T04:47:43;17.30;71.40
62581;DHT22;48640;48.770;9.148;2022-09-03T04:50:12;17.50;71.80
62581;DHT22;48640;48.770;9.148;2022-09-03T04:52:40;17.40;71.70
62581;DHT22;48640;48.770;9.148;2022-09-03T04:55:07;17.50;71.50
62581;DHT22;48640;48.770;9.148;2022-09-03T04:57:35;17.50;71.20
62581;DHT22;48640;48.770;9.148;2022-09-03T05:00:04;17.60;71.40
62581;DHT22;48640;48.770;9.148;2022-09-03T05:02:34;17.60;71.40
62581;DHT22;48640;48.770;9.148;2022-09-03T05:05:01;17.70;72.00
62581;DHT22;48640;48.770;9.148;2022-09-03T05:07:29;17.80;71.60
62581;DHT22;48640;48.770;9.148;2022-09-03T05:10:07;17.80;71.60
62581;DHT22;48640;48.770;9.148;2022-09-03T05:12:34;17.70;72.30
62581;DHT22;48640;48.770;9.148;2022-09-03T05:15:01;17.70;72.90
62581;DHT22;48640;48.770;9.148;2022-09-03T05:17:29;17.80;72.40
62581;DHT22;48640;48.770;9.148;2022-09-03T05:19:56;17.90;72.30
62581;DHT22;48640;48.770;9.148;2022-09-03T05:22:23;18.00;72.00
62581;DHT22;48640;48.770;9.148;2022-09-03T05:24:50;18.00;71.70
62581;DHT22;48640;48.770;9.148;2022-09-03T05:27:19;18.00;72.10
62581;DHT22;48640;48.770;9.148;2022-09-03T05:29:45;18.00;72.80
62581;DHT22;48640;48.770;9.148;2022-09-03T05:32:13;18.10;73.10
62581;DHT22;48640;48.770;9.148;2022-09-03T05:34:41;18.30;72.10
62581;DHT22;48640;48.770;9.148;2022-09-03T05:37:08;18.50;71.20
62581;DHT22;48640;48.770;9.148;2022-09-03T05:39:36;18.60;70.90
62581;DHT22;48640;48.770;9.148;2022-09-03T05:42:03;18.60;70.40
62581;DHT22;48640;48.770;9.148;2022-09-03T05:44:31;18.60;70.30
62581;DHT22;48640;48.770;9.148;2022-09-03T05:46:58;18.60;70.60
62581;DHT22;48640;48.770;9.148;2022-09-03T05:49:25;18.50;71.40
62581;DHT22;48640;48.770;9.148;2022-09-03T05:51:52;18.50;71.00
62581;DHT22;48640;48.770;9.148;2022-09-03T05:54:18;18.40;71.40
62581;DHT22;48640;48.770;9.148;2022-09-03T05:56:45;18.40;72.00
62581;DHT22;48640;48.770;9.148;2022-09-03T05:59:12;18.50;71.90
62581;DHT22;48640;48.770;9.148;2022-09-03T06:01:41;18.50;71.80
62581;DHT22;48640;48.770;9.148;2022-09-03T06:04:11;18.50;71.80
62581;DHT22;48640;48.770;9.148;2022-09-03T06:06:40;18.50;71.90
62581;DHT22;48640;48.770;9.148;2022-09-03T06:09:08;18.60;72.30
62581;DHT22;48640;48.770;9.148;2022-09-03T06:11:37;18.60;72.20
62581;DHT22;48640;48.770;9.148;2022-09-03T06:14:06;18.60;72.50
62581;DHT22;48640;48.770;9.148;2022-09-03T06:16:35;18.60;73.00
62581;DHT22;48640;48.770;9.148;2022-09-03T06:19:03;18.60;73.40
62581;DHT22;48640;48.770;9.148;2022-09-03T06:21:34;18.60;73.40
62581;DHT22;48640;48.770;9.148;2022-09-03T06:24:02;18.60;73.40
62581;DHT22;48640;48.770;9.148;2022-09-03T06:26:29;18.60;73.50
62581;DHT22;48640;48.770;9.148;2022-09-03T06:28:56;18.60;73.40
62581;DHT22;48640;48.770;9.148;2022-09-03T06:31:25;18.80;73.70
62581;DHT22;48640;48.770;9.148;2022-09-03T06:33:52;18.70;73.80
62581;DHT22;48640;48.770;9.148;2022-09-03T06:36:21;18.80;73.90
62581;DHT22;48640;48.770;9.148;2022-09-03T06:38:52;18.80;74.40
62581;DHT22;48640;48.770;9.148;2022-09-03T06:41:19;19.00;73.40
62581;DHT22;48640;48.770;9.148;2022-09-03T06:43:50;19.10;72.90
62581;DHT22;48640;48.770;9.148;2022-09-03T06:46:18;19.00;73.10
62581;DHT22;48640;48.770;9.148;2022-09-03T06:48:45;19.10;73.30
62581;DHT22;48640;48.770;9.148;2022-09-03T06:51:14;19.00;73.60
62581;DHT22;48640;48.770;9.148;2022-09-03T06:53:45;19.10;73.30
62581;DHT22;48640;48.770;9.148;2022-09-03T06:56:14;19.20;73.60
62581;DHT22;48640;48.770;9.148;2022-09-03T06:58:43;19.20;73.60
62581;DHT22;48640;48.770;9.148;2022-09-03T07:01:11;19.40;73.90
62581;DHT22;48640;48.770;9.148;2022-09-03T07:03:40;19.30;73.90
62581;DHT22;48640;48.770;9.148;2022-09-03T07:06:08;19.40;73.80
62581;DHT22;48640;48.770;9.148;2022-09-03T07:08:35;19.50;73.90
62581;DHT22;48640;48.770;9.148;2022-09-03T07:11:06;19.60;74.20
62581;DHT22;48640;48.770;9.148;2022-09-03T07:13:35;19.60;74.20
62581;DHT22;48640;48.770;9.148;2022-09-03T07:16:05;19.60;74.60
62581;DHT22;48640;48.770;9.148;2022-09-03T07:18:33;19.50;75.30
62581;DHT22;48640;48.770;9.148;2022-09-03T07:21:01;19.50;75.70
62581;DHT22;48640;48.770;9.148;2022-09-03T07:23:29;19.50;75.80
62581;DHT22;48640;48.770;9.148;2022-09-03T07:25:59;19.60;76.30
62581;DHT22;48640;48.770;9.148;2022-09-03T07:28:28;19.60;76.50
62581;DHT22;48640;48.770;9.148;2022-09-03T07:31:02;19.70;76.80
62581;DHT22;48640;48.770;9.148;2022-09-03T07:33:30;19.70;76.50
62581;DHT22;48640;48.770;9.148;2022-09-03T07:36:02;20.00;76.70
62581;DHT22;48640;48.770;9.148;2022-09-03T07:38:30;20.30;75.40
62581;DHT22;48640;48.770;9.148;2022-09-03T07:40:58;20.60;74.40
62581;DHT22;48640;48.770;9.148;2022-09-03T07:43:27;21.00;73.30
62581;DHT22;48640;48.770;9.148;2022-09-03T07:45:54;21.40;72.20
62581;DHT22;48640;48.770;9.148;2022-09-03T07:48:22;21.60;70.40
62581;DHT22;48640;48.770;9.148;2022-09-03T07:50:50;21.90;69.20
62581;DHT22;48640;48.770;9.148;2022-09-03T07:53:17;22.20;68.50
62581;DHT22;48640;48.770;9.148;2022-09-03T07:55:45;22.20;67.80
62581;DHT22;48640;48.770;9.148;2022-09-03T07:58:12;22.40;67.10
62581;DHT22;48640;48.770;9.148;2022-09-03T08:00:41;22.20;66.90
62581;DHT22;48640;48.770;9.148;2022-09-03T08:03:07;22.00;67.40
62581;DHT22;48640;48.770;9.148;2022-09-03T08:05:35;21.60;68.60
62581;DHT22;48640;48.770;9.148;2022-09-03T08:08:02;21.60;69.20
62581;DHT22;48640;48.770;9.148;2022-09-03T08:10:29;21.80;70.00
62581;DHT22;48640;48.770;9.148;2022-09-03T08:12:57;22.00;68.50
62581;DHT22;48640;48.770;9.148;2022-09-03T08:15:24;22.20;69.40
62581;DHT22;48640;48.770;9.148;2022-09-03T08:17:53;22.40;69.10
62581;DHT22;48640;48.770;9.148;2022-09-03T08:20:20;23.10;66.30
62581;DHT22;48640;48.770;9.148;2022-09-03T08:22:47;23.70;64.20
62581;DHT22;48640;48.770;9.148;2022-09-03T08:25:14;24.70;61.10
62581;DHT22;48640;48.770;9.148;2022-09-03T08:27:40;26.50;58.60
62581;DHT22;48640;48.770;9.148;2022-09-03T08:30:08;28.40;52.20
62581;DHT22;48640;48.770;9.148;2022-09-03T08:32:36;29.60;48.80
62581;DHT22;48640;48.770;9.148;2022-09-03T08:35:06;29.10;47.70
62581;DHT22;48640;48.770;9.148;2022-09-03T08:37:33;30.20;46.00
62581;DHT22;48640;48.770;9.148;2022-09-03T08:40:00;30.40;44.80
62581;DHT22;48640;48.770;9.148;2022-09-03T08:42:40;29.00;45.70
62581;DHT22;48640;48.770;9.148;2022-09-03T08:45:14;29.20;44.60
62581;DHT22;48640;48.770;9.148;2022-09-03T08:47:44;28.90;47.00
62581;DHT22;48640;48.770;9.148;2022-09-03T08:50:18;29.00;46.50
62581;DHT22;48640;48.770;9.148;2022-09-03T08:52:49;31.50;43.10
62581;DHT22;48640;48.770;9.148;2022-09-03T08:55:20;29.80;42.60
62581;DHT22;48640;48.770;9.148;2022-09-03T08:57:49;26.90;47.20
62581;DHT22;48640;48.770;9.148;2022-09-03T09:00:17;25.00;52.70
62581;DHT22;48640;48.770;9.148;2022-09-03T09:02:55;25.10;54.60
62581;DHT22;48640;48.770;9.148;2022-09-03T09:05:37;24.60;55.20
62581;DHT22;48640;48.770;9.148;2022-09-03T09:08:15;24.90;56.20
62581;DHT22;48640;48.770;9.148;2022-09-03T09:10:46;25.20;55.60
62581;DHT22;48640;48.770;9.148;2022-09-03T09:13:16;25.20;54.60
62581;DHT22;48640;48.770;9.148;2022-09-03T09:15:51;24.90;54.80
62581;DHT22;48640;48.770;9.148;2022-09-03T09:18:27;25.00;55.30
62581;DHT22;48640;48.770;9.148;2022-09-03T09:21:06;24.50;55.60
62581;DHT22;48640;48.770;9.148;2022-09-03T09:23:39;24.00;56.50
62581;DHT22;48640;48.770;9.148;2022-09-03T09:26:10;23.70;57.80
62581;DHT22;48640;48.770;9.148;2022-09-03T09:28:38;23.90;58.60
62581;DHT22;48640;48.770;9.148;2022-09-03T09:31:06;27.50;53.50
62581;DHT22;48640;48.770;9.148;2022-09-03T09:33:36;29.90;46.80
62581;DHT22;48640;48.770;9.148;2022-09-03T09:36:07;32.00;41.50
62581;DHT22;48640;48.770;9.148;2022-09-03T09:38:38;34.00;37.90
62581;DHT22;48640;48.770;9.148;2022-09-03T09:41:09;33.10;37.00
62581;DHT22;48640;48.770;9.148;2022-09-03T09:43:37;33.70;37.00
62581;DHT22;48640;48.770;9.148;2022-09-03T09:46:11;34.60;35.50
62581;DHT22;48640;48.770;9.148;2022-09-03T09:48:46;36.10;32.30
62581;DHT22;48640;48.770;9.148;2022-09-03T09:51:20;36.10;31.70
62581;DHT22;48640;48.770;9.148;2022-09-03T09:53:47;34.60;32.40
62581;DHT22;48640;48.770;9.148;2022-09-03T09:56:21;31.00;37.80
62581;DHT22;48640;48.770;9.148;2022-09-03T09:58:49;29.40;40.50
62581;DHT22;48640;48.770;9.148;2022-09-03T10:01:21;28.60;43.50
62581;DHT22;48640;48.770;9.148;2022-09-03T10:03:51;28.50;43.80
62581;DHT22;48640;48.770;9.148;2022-09-03T10:06:22;28.30;44.00
62581;DHT22;48640;48.770;9.148;2022-09-03T10:09:09;27.70;45.00
62581;DHT22;48640;48.770;9.148;2022-09-03T10:11:37;27.40;46.20
62581;DHT22;48640;48.770;9.148;2022-09-03T10:14:10;27.20;46.40
62581;DHT22;48640;48.770;9.148;2022-09-03T10:16:41;27.00;46.80
62581;DHT22;48640;48.770;9.148;2022-09-03T10:19:16;26.50;48.20
62581;DHT22;48640;48.770;9.148;2022-09-03T10:21:52;26.70;48.40
62581;DHT22;48640;48.770;9.148;2022-09-03T10:24:34;26.40;49.20
62581;DHT22;48640;48.770;9.148;2022-09-03T10:27:06;26.70;49.00
62581;DHT22;48640;48.770;9.148;2022-09-03T10:29:35;26.20;48.40
62581;DHT22;48640;48.770;9.148;2022-09-03T10:32:22;26.40;49.10
62581;DHT22;48640;48.770;9.148;2022-09-03T10:34:56;26.50;48.40
62581;DHT22;48640;48.770;9.148;2022-09-03T10:37:36;27.10;49.00
62581;DHT22;48640;48.770;9.148;2022-09-03T10:40:18;26.40;47.90
62581;DHT22;48640;48.770;9.148;2022-09-03T10:43:03;26.90;48.00
62581;DHT22;48640;48.770;9.148;2022-09-03T10:45:36;26.40;47.10
62581;DHT22;48640;48.770;9.148;2022-09-03T10:48:47;26.30;48.50
62581;DHT22;48640;48.770;9.148;2022-09-03T10:51:18;26.20;49.60
62581;DHT22;48640;48.770;9.148;2022-09-03T10:54:07;26.40;48.80
62581;DHT22;48640;48.770;9.148;2022-09-03T10:56:44;27.10;48.00
62581;DHT22;48640;48.770;9.148;2022-09-03T10:59:31;27.60;47.40
62581;DHT22;48640;48.770;9.148;2022-09-03T11:02:19;27.80;46.70
62581;DHT22;48640;48.770;9.148;2022-09-03T11:04:52;27.00;46.40
62581;DHT22;48640;48.770;9.148;2022-09-03T11:07:26;27.10;48.40
62581;DHT22;48640;48.770;9.148;2022-09-03T11:10:04;27.10;46.80
62581;DHT22;48640;48.770;9.148;2022-09-03T11:12:34;25.60;49.10
62581;DHT22;48640;48.770;9.148;2022-09-03T11:15:05;24.50;52.20
62581;DHT22;48640;48.770;9.148;2022-09-03T11:17:38;24.30;53.60
62581;DHT22;48640;48.770;9.148;2022-09-03T11:20:11;24.10;54.20
62581;DHT22;48640;48.770;9.148;2022-09-03T11:22:41;23.80;55.00
62581;DHT22;48640;48.770;9.148;2022-09-03T11:25:13;23.40;56.10
62581;DHT22;48640;48.770;9.148;2022-09-03T11:27:52;23.40;57.10
62581;DHT22;48640;48.770;9.148;2022-09-03T11:30:27;23.70;57.10
62581;DHT22;48640;48.770;9.148;2022-09-03T11:32:59;24.00;57.20
62581;DHT22;48640;48.770;9.148;2022-09-03T11:35:38;24.30;55.50
62581;DHT22;48640;48.770;9.148;2022-09-03T11:38:19;24.40;54.50
62581;DHT22;48640;48.770;9.148;2022-09-03T11:40:59;24.00;55.20
62581;DHT22;48640;48.770;9.148;2022-09-03T11:43:28;24.00;56.60
62581;DHT22;48640;48.770;9.148;2022-09-03T11:46:04;24.10;55.60
62581;DHT22;48640;48.770;9.148;2022-09-03T11:48:37;23.80;55.20
62581;DHT22;48640;48.770;9.148;2022-09-03T11:51:17;23.30;56.40
62581;DHT22;48640;48.770;9.148;2022-09-03T11:53:53;23.10;58.40
62581;DHT22;48640;48.770;9.148;2022-09-03T11:56:21;23.10;58.60
62581;DHT22;48640;48.770;9.148;2022-09-03T11:59:03;22.80;58.70
62581;DHT22;48640;48.770;9.148;2022-09-03T12:01:32;22.40;59.20
62581;DHT22;48640;48.770;9.148;2022-09-03T12:04:02;22.30;60.40
62581;DHT22;48640;48.770;9.148;2022-09-03T12:06:56;22.30;60.60
62581;DHT22;48640;48.770;9.148;2022-09-03T12:12:31;22.30;62.10
62581;DHT22;48640;48.770;9.148;2022-09-03T12:15:09;22.30;62.90
62581;DHT22;48640;48.770;9.148;2022-09-03T12:17:45;22.00;62.80
62581;DHT22;48640;48.770;9.148;2022-09-03T12:20:14;21.80;64.50
62581;DHT22;48640;48.770;9.148;2022-09-03T12:22:41;21.70;66.40
62581;DHT22;48640;48.770;9.148;2022-09-03T12:25:09;21.80;67.30
62581;DHT22;48640;48.770;9.148;2022-09-03T12:27:39;21.80;68.50
62581;DHT22;48640;48.770;9.148;2022-09-03T12:30:14;21.80;68.80
62581;DHT22;48640;48.770;9.148;2022-09-03T12:32:41;21.60;70.20
62581;DHT22;48640;48.770;9.148;2022-09-03T12:35:13;21.50;71.70
62581;DHT22;48640;48.770;9.148;2022-09-03T12:37:41;21.40;76.40
62581;DHT22;48640;48.770;9.148;2022-09-03T12:40:17;21.20;80.60
62581;DHT22;48640;48.770;9.148;2022-09-03T12:42:47;21.00;83.50
62581;DHT22;48640;48.770;9.148;2022-09-03T12:45:18;20.80;85.10
62581;DHT22;48640;48.770;9.148;2022-09-03T12:47:45;20.60;88.40
62581;DHT22;48640;48.770;9.148;2022-09-03T12:50:14;20.30;89.60
62581;DHT22;48640;48.770;9.148;2022-09-03T12:52:43;20.10;90.20
62581;DHT22;48640;48.770;9.148;2022-09-03T12:55:21;20.00;91.00
62581;DHT22;48640;48.770;9.148;2022-09-03T12:57:55;19.80;91.20
62581;DHT22;48640;48.770;9.148;2022-09-03T13:00:22;19.70;92.50
62581;DHT22;48640;48.770;9.148;2022-09-03T13:02:54;19.70;93.60
62581;DHT22;48640;48.770;9.148;2022-09-03T13:05:30;19.70;92.90
62581;DHT22;48640;48.770;9.148;2022-09-03T13:07:59;19.60;92.90
62581;DHT22;48640;48.770;9.148;2022-09-03T13:10:33;19.50;92.10
62581;DHT22;48640;48.770;9.148;2022-09-03T13:13:20;19.50;93.30
62581;DHT22;48640;48.770;9.148;2022-09-03T13:15:59;19.50;94.00
62581;DHT22;48640;48.770;9.148;2022-09-03T13:18:31;19.60;93.00
62581;DHT22;48640;48.770;9.148;2022-09-03T13:21:12;19.60;93.20
62581;DHT22;48640;48.770;9.148;2022-09-03T13:24:03;19.60;93.30
62581;DHT22;48640;48.770;9.148;2022-09-03T13:26:39;19.70;93.70
62581;DHT22;48640;48.770;9.148;2022-09-03T13:29:36;19.80;94.40
62581;DHT22;48640;48.770;9.148;2022-09-03T13:32:11;20.00;94.00
62581;DHT22;48640;48.770;9.148;2022-09-03T13:34:46;20.10;94.50
62581;DHT22;48640;48.770;9.148;2022-09-03T13:37:23;20.50;93.60
62581;DHT22;48640;48.770;9.148;2022-09-03T13:39:54;21.10;93.30
62581;DHT22;48640;48.770;9.148;2022-09-03T13:42:26;21.50;90.50
62581;DHT22;48640;48.770;9.148;2022-09-03T13:45:04;21.80;88.50
62581;DHT22;48640;48.770;9.148;2022-09-03T13:47:35;21.80;88.10
62581;DHT22;48640;48.770;9.148;2022-09-03T13:50:27;21.40;87.80
62581;DHT22;48640;48.770;9.148;2022-09-03T13:52:57;21.00;87.00
62581;DHT22;48640;48.770;9.148;2022-09-03T13:55:31;20.70;89.30
62581;DHT22;48640;48.770;9.148;2022-09-03T13:58:03;20.70;90.00
62581;DHT22;48640;48.770;9.148;2022-09-03T14:00:38;20.50;90.60
62581;DHT22;48640;48.770;9.148;2022-09-03T14:03:09;20.30;91.50
62581;DHT22;48640;48.770;9.148;2022-09-03T14:05:53;20.40;92.20
62581;DHT22;48640;48.770;9.148;2022-09-03T14:08:31;20.70;91.60
62581;DHT22;48640;48.770;9.148;2022-09-03T14:11:08;21.00;91.70
62581;DHT22;48640;48.770;9.148;2022-09-03T14:13:47;21.20;91.30
62581;DHT22;48640;48.770;9.148;2022-09-03T14:16:25;21.20;90.70
62581;DHT22;48640;48.770;9.148;2022-09-03T14:18:58;21.20;90.80
62581;DHT22;48640;48.770;9.148;2022-09-03T14:21:29;21.20;91.80
62581;DHT22;48640;48.770;9.148;2022-09-03T14:24:04;21.20;91.80
62581;DHT22;48640;48.770;9.148;2022-09-03T14:26:33;21.30;91.50
62581;DHT22;48640;48.770;9.148;2022-09-03T14:29:07;21.20;91.30
62581;DHT22;48640;48.770;9.148;2022-09-03T14:32:03;21.20;91.80
62581;DHT22;48640;48.770;9.148;2022-09-03T14:34:39;20.90;91.10
62581;DHT22;48640;48.770;9.148;2022-09-03T14:37:22;20.90;91.50
62581;DHT22;48640;48.770;9.148;2022-09-03T14:39:59;20.90;90.50
62581;DHT22;48640;48.770;9.148;2022-09-03T14:42:48;20.80;90.40
62581;DHT22;48640;48.770;9.148;2022-09-03T14:45:36;20.60;90.60
62581;DHT22;48640;48.770;9.148;2022-09-03T14:48:20;20.70;91.20
62581;DHT22;48640;48.770;9.148;2022-09-03T14:51:10;20.70;90.50
62581;DHT22;48640;48.770;9.148;2022-09-03T14:54:22;20.90;90.70
62581;DHT22;48640;48.770;9.148;2022-09-03T14:57:01;21.10;90.60
62581;DHT22;48640;48.770;9.148;2022-09-03T14:59:49;21.00;90.50
62581;DHT22;48640;48.770;9.148;2022-09-03T15:02:55;21.20;90.70
62581;DHT22;48640;48.770;9.148;2022-09-03T15:05:41;21.50;90.50
62581;DHT22;48640;48.770;9.148;2022-09-03T15:08:16;21.60;90.30
62581;DHT22;48640;48.770;9.148;2022-09-03T15:10:47;21.60;88.90
62581;DHT22;48640;48.770;9.148;2022-09-03T15:13:19;21.80;90.00
62581;DHT22;48640;48.770;9.148;2022-09-03T15:15:58;21.90;88.00
62581;DHT22;48640;48.770;9.148;2022-09-03T15:18:44;21.90;87.80
62581;DHT22;48640;48.770;9.148;2022-09-03T15:21:22;22.00;87.40
62581;DHT22;48640;48.770;9.148;2022-09-03T15:24:03;22.20;87.30
62581;DHT22;48640;48.770;9.148;2022-09-03T15:26:44;22.30;85.80
62581;DHT22;48640;48.770;9.148;2022-09-03T15:29:35;22.30;85.60
62581;DHT22;48640;48.770;9.148;2022-09-03T15:32:11;22.20;85.90
62581;DHT22;48640;48.770;9.148;2022-09-03T15:34:58;22.20;86.60
62581;DHT22;48640;48.770;9.148;2022-09-03T15:37:33;22.20;85.90
62581;DHT22;48640;48.770;9.148;2022-09-03T15:40:04;22.20;87.00
62581;DHT22;48640;48.770;9.148;2022-09-03T15:42:32;22.40;86.90
62581;DHT22;48640;48.770;9.148;2022-09-03T15:45:05;22.50;86.50
62581;DHT22;48640;48.770;9.148;2022-09-03T15:47:39;22.50;84.70
62581;DHT22;48640;48.770;9.148;2022-09-03T15:50:15;22.50;84.70
62581;DHT22;48640;48.770;9.148;2022-09-03T15:52:55;22.30;87.00
62581;DHT22;48640;48.770;9.148;2022-09-03T15:55:30;21.90;90.10
62581;DHT22;48640;48.770;9.148;2022-09-03T15:58:00;21.40;91.60
62581;DHT22;48640;48.770;9.148;2022-09-03T16:00:40;21.40;92.30
62581;DHT22;48640;48.770;9.148;2022-09-03T16:03:20;21.30;92.50
62581;DHT22;48640;48.770;9.148;2022-09-03T16:05:53;21.20;92.80
62581;DHT22;48640;48.770;9.148;2022-09-03T16:08:25;21.30;92.70
62581;DHT22;48640;48.770;9.148;2022-09-03T16:11:04;21.30;92.70